Time;durP1;ratioP1;P1;durP2;ratioP2;P2;SDS_P1;SDS_P2;PMS_P1;PMS_P2;Temp;Humidity;BMP_temperature;BMP_pressure;BME280_temperature;BME280_humidity;BME280_pressure;Samples;Min_cycle;Max_cycle;Signal;HPM_P1;HPM_P2
2022/05/12 00:01:59;;;;;;;3.88;1.10;;;11.10;99.90;;;;;;5141061;27;20450;-71
2022/05/12 00:04:25;;;;;;;;;;;11.10;99.90;;;;;;5148545;27;20046;-71
2022/05/12 00:06:51;;;;;;;4.10;1.48;;;11.00;99.90;;;;;;5148985;27;20377;-71
2022/05/12 00:09:17;;;;;;;5.65;1.10;;;11.00;99.90;;;;;;5149798;27;20038;-71
2022/05/12 00:11:43;;;;;;;3.42;1.00;;;10.90;99.90;;;;;;5141148;27;20038;-71
2022/05/12 00:14:09;;;;;;;3.08;0.70;;;11.00;99.90;;;;;;5116611;27;20123;-71
2022/05/12 00:16:35;;;;;;;2.80;0.70;;;10.90;99.90;;;;;;5136175;27;20516;-71
2022/05/12 00:19:00;;;;;;;3.40;0.85;;;10.80;99.90;;;;;;5113270;27;20046;-71
2022/05/12 00:21:26;;;;;;;3.08;0.90;;;10.80;99.90;;;;;;5145548;27;20038;-71
2022/05/12 00:23:58;;;;;;;3.22;0.60;;;10.80;99.90;;;;;;5132054;27;20170;-71
2022/05/12 00:26:29;;;;;;;1.80;0.60;;;10.80;99.90;;;;;;5144448;27;20130;-71
2022/05/12 00:28:57;;;;;;;3.00;0.60;;;10.70;99.90;;;;;;5150161;27;20047;-71
2022/05/12 00:31:23;;;;;;;2.92;0.70;;;10.70;99.90;;;;;;5136228;27;20049;-71
2022/05/12 00:33:49;;;;;;;2.78;0.80;;;10.60;99.90;;;;;;5139905;27;20069;-72
2022/05/12 00:36:15;;;;;;;3.08;1.00;;;10.60;99.90;;;;;;5142536;27;20066;-72
2022/05/12 00:38:41;;;;;;;3.33;0.70;;;10.60;99.90;;;;;;5141450;27;20049;-71
2022/05/12 00:41:07;;;;;;;4.15;0.90;;;10.60;99.90;;;;;;5130949;27;20031;-72
2022/05/12 00:43:39;;;;;;;2.13;0.70;;;10.50;99.90;;;;;;5143420;27;20042;-71
2022/05/12 00:46:08;;;;;;;2.95;0.70;;;10.50;99.90;;;;;;5143100;27;20101;-71
2022/05/12 00:48:33;;;;;;;2.85;1.00;;;10.40;99.90;;;;;;5140411;27;20075;-71
2022/05/12 00:51:00;;;;;;;3.33;1.05;;;10.40;99.90;;;;;;5141918;27;20083;-71
2022/05/12 00:53:27;;;;;;;1.67;0.73;;;10.40;99.90;;;;;;5119714;27;20083;-71
2022/05/12 00:55:53;;;;;;;1.83;0.50;;;10.30;99.90;;;;;;5135356;27;20051;-70
2022/05/12 00:58:21;;;;;;;2.17;0.70;;;10.20;99.90;;;;;;5135984;27;20031;-71
2022/05/12 01:00:47;;;;;;;2.47;0.50;;;10.20;99.90;;;;;;5131354;27;20035;-71
2022/05/12 01:03:21;;;;;;;0.85;0.50;;;10.20;99.90;;;;;;5118481;27;20042;-71
2022/05/12 01:05:48;;;;;;;1.88;0.65;;;10.10;99.90;;;;;;5149191;27;20038;-70
2022/05/12 01:08:16;;;;;;;2.58;0.73;;;10.10;99.90;;;;;;5151298;27;20135;-71
2022/05/12 01:10:47;;;;;;;1.65;0.60;;;10.10;99.90;;;;;;5139652;27;20127;-71
2022/05/12 01:13:13;;;;;;;2.38;0.70;;;10.00;99.90;;;;;;5142875;27;20046;-71
2022/05/12 01:15:49;;;;;;;1.10;0.40;;;9.90;99.90;;;;;;5150244;27;20083;-71
2022/05/12 01:18:17;;;;;;;1.70;0.60;;;9.90;99.90;;;;;;5143334;27;20050;-71
2022/05/12 01:20:44;;;;;;;1.77;0.60;;;9.90;99.90;;;;;;5136151;27;20047;-71
2022/05/12 01:23:31;;;;;;;1.40;0.43;;;9.90;99.90;;;;;;5150037;27;20045;-71
2022/05/12 01:26:07;;;;;;;0.77;0.43;;;9.80;99.90;;;;;;5134429;27;20481;-71
2022/05/12 01:28:33;;;;;;;1.02;0.35;;;9.80;99.90;;;;;;5139851;27;20070;-71
2022/05/12 01:30:59;;;;;;;1.33;0.63;;;9.70;99.90;;;;;;5134187;27;20077;-71
2022/05/12 01:33:26;;;;;;;4.38;0.50;;;9.70;99.90;;;;;;5146659;27;20039;-72
2022/05/12 01:35:51;;;;;;;2.17;0.70;;;9.70;99.90;;;;;;5147886;27;20119;-71
2022/05/12 01:38:18;;;;;;;1.40;0.60;;;9.70;99.90;;;;;;5136035;27;20058;-71
2022/05/12 01:40:44;;;;;;;2.50;0.63;;;9.60;99.90;;;;;;5151199;27;20727;-71
2022/05/12 01:43:12;;;;;;;1.48;0.43;;;9.60;99.90;;;;;;5117170;27;20121;-70
2022/05/12 01:45:39;;;;;;;0.70;0.30;;;9.60;99.90;;;;;;5135784;27;20042;-70
2022/05/12 01:48:05;;;;;;;;;;;9.60;99.90;;;;;;5143852;27;20442;-70
2022/05/12 01:50:31;;;;;;;0.73;0.40;;;9.50;99.90;;;;;;5151348;27;19915;-70
2022/05/12 01:52:57;;;;;;;2.08;0.80;;;9.50;99.90;;;;;;5140477;27;20450;-70
2022/05/12 01:55:26;;;;;;;1.88;0.65;;;9.50;99.90;;;;;;5151656;27;20078;-70
2022/05/12 01:57:52;;;;;;;1.75;0.60;;;9.50;99.90;;;;;;5157100;27;20487;-69
2022/05/12 02:00:22;;;;;;;2.25;0.57;;;9.50;99.90;;;;;;5161003;27;20540;-70
2022/05/12 02:02:49;;;;;;;1.05;0.50;;;9.50;99.90;;;;;;5138600;27;20039;-70
2022/05/12 02:05:14;;;;;;;;;;;9.50;99.90;;;;;;5131471;27;20039;-70
2022/05/12 02:07:43;;;;;;;2.33;0.80;;;9.40;99.90;;;;;;5133818;27;19938;-70
2022/05/12 02:10:13;;;;;;;2.22;0.63;;;9.50;99.90;;;;;;5134284;27;20073;-69
2022/05/12 02:12:39;;;;;;;1.30;0.50;;;9.40;99.90;;;;;;5148529;27;20045;-70
2022/05/12 02:15:06;;;;;;;1.45;0.70;;;9.40;99.90;;;;;;5138572;27;20117;-69
2022/05/12 02:17:32;;;;;;;3.20;0.80;;;9.40;99.90;;;;;;5118863;27;20034;-70
2022/05/12 02:19:58;;;;;;;1.58;0.90;;;9.40;99.90;;;;;;5128524;27;20043;-70
2022/05/12 02:22:24;;;;;;;;;;;9.40;99.90;;;;;;5149118;27;20054;-70
2022/05/12 02:24:50;;;;;;;3.45;1.20;;;9.40;99.90;;;;;;5120525;28;19926;-69
2022/05/12 02:27:15;;;;;;;3.83;1.00;;;9.40;99.90;;;;;;5128763;27;20501;-69
2022/05/12 02:29:41;;;;;;;2.08;1.00;;;9.40;99.90;;;;;;5130593;27;20039;-69
2022/05/12 02:32:07;;;;;;;5.95;1.40;;;9.30;99.90;;;;;;5141164;27;20436;-69
2022/05/12 02:34:34;;;;;;;4.05;1.65;;;9.40;99.90;;;;;;5139504;27;20088;-70
2022/05/12 02:37:01;;;;;;;4.35;1.45;;;9.40;99.90;;;;;;5134078;27;20035;-69
2022/05/12 02:39:36;;;;;;;5.57;1.48;;;9.40;99.90;;;;;;5141331;27;20038;-70
2022/05/12 02:42:07;;;;;;;3.80;1.23;;;9.40;99.90;;;;;;5123418;27;20046;-70
2022/05/12 02:44:32;;;;;;;4.13;1.27;;;9.40;99.90;;;;;;5136738;27;20469;-70
2022/05/12 02:46:58;;;;;;;4.28;0.98;;;9.40;99.90;;;;;;5145855;27;20047;-70
2022/05/12 02:49:24;;;;;;;1.83;0.80;;;9.40;99.90;;;;;;5151884;27;20050;-70
2022/05/12 02:51:50;;;;;;;4.07;1.00;;;9.30;99.90;;;;;;5138647;27;20034;-70
2022/05/12 02:54:17;;;;;;;3.97;1.27;;;9.30;99.90;;;;;;5149082;27;20053;-70
2022/05/12 02:56:43;;;;;;;6.03;1.40;;;9.30;99.90;;;;;;5136319;27;20042;-70
2022/05/12 02:59:10;;;;;;;3.08;1.33;;;9.40;99.90;;;;;;5120042;27;20039;-70
2022/05/12 03:01:35;;;;;;;;;;;9.30;99.90;;;;;;5143610;27;20134;-70
2022/05/12 03:04:01;;;;;;;3.08;1.33;;;9.30;99.90;;;;;;5136070;27;19919;-70
2022/05/12 03:06:27;;;;;;;3.00;1.35;;;9.30;99.90;;;;;;5136521;27;20077;-70
2022/05/12 03:08:54;;;;;;;3.33;1.27;;;9.30;99.90;;;;;;5133267;27;20039;-70
2022/05/12 03:11:20;;;;;;;2.28;1.02;;;9.30;99.90;;;;;;5135019;27;20070;-70
2022/05/12 03:13:46;;;;;;;;;;;9.30;99.90;;;;;;5150275;27;20066;-70
2022/05/12 03:16:13;;;;;;;2.25;1.05;;;9.20;99.90;;;;;;5127583;27;19918;-70
2022/05/12 03:18:39;;;;;;;1.95;0.90;;;9.20;99.90;;;;;;5142049;27;20517;-70
2022/05/12 03:21:05;;;;;;;3.92;0.98;;;9.20;99.90;;;;;;5135998;27;20043;-70
2022/05/12 03:23:31;;;;;;;2.45;1.10;;;9.10;99.90;;;;;;5142239;27;20031;-69
2022/05/12 03:25:57;;;;;;;2.28;1.00;;;9.10;99.90;;;;;;5142933;27;20065;-70
2022/05/12 03:28:24;;;;;;;3.47;1.20;;;9.00;99.90;;;;;;5140090;27;20131;-70
2022/05/12 03:30:50;;;;;;;1.75;0.90;;;9.00;99.90;;;;;;5111383;27;20047;-70
2022/05/12 03:33:16;;;;;;;1.98;1.08;;;9.00;99.90;;;;;;5118150;27;20054;-70
2022/05/12 03:35:42;;;;;;;2.35;1.08;;;9.00;99.90;;;;;;5134213;27;20430;-70
2022/05/12 03:38:08;;;;;;;5.43;1.27;;;9.00;99.90;;;;;;5144165;27;20035;-70
2022/05/12 03:40:33;;;;;;;2.72;0.95;;;9.00;99.90;;;;;;5150386;27;20034;-70
2022/05/12 03:42:59;;;;;;;4.88;1.25;;;9.00;99.90;;;;;;5134871;27;20187;-70
2022/05/12 03:45:29;;;;;;;6.20;1.52;;;8.90;99.90;;;;;;5144384;27;20121;-70
2022/05/12 03:47:56;;;;;;;2.20;1.02;;;8.90;99.90;;;;;;5134279;27;20118;-70
2022/05/12 03:50:25;;;;;;;3.88;1.35;;;8.80;99.90;;;;;;5139744;27;20107;-70
2022/05/12 03:52:52;;;;;;;4.38;1.83;;;8.90;99.90;;;;;;5151385;27;20124;-70
2022/05/12 03:55:21;;;;;;;6.82;2.10;;;8.80;99.90;;;;;;5146867;27;20048;-70
2022/05/12 03:57:50;;;;;;;5.38;1.80;;;8.90;99.90;;;;;;5142170;27;20122;-70
2022/05/12 04:00:27;;;;;;;4.45;1.90;;;8.90;99.90;;;;;;5133212;27;20051;-70
2022/05/12 04:02:53;;;;;;;7.05;2.35;;;8.90;99.90;;;;;;5150308;27;20122;-70
2022/05/12 04:05:20;;;;;;;5.22;1.90;;;9.00;99.90;;;;;;5146557;27;20121;-70
2022/05/12 04:07:46;;;;;;;5.85;1.83;;;8.90;99.90;;;;;;5148422;27;20122;-70
2022/05/12 04:10:14;;;;;;;3.00;1.63;;;8.90;99.90;;;;;;5145115;27;20090;-70
2022/05/12 04:12:40;;;;;;;5.18;2.08;;;8.90;99.90;;;;;;5131346;27;20432;-70
2022/05/12 04:15:08;;;;;;;5.50;1.75;;;9.00;99.90;;;;;;5118463;27;20081;-70
2022/05/12 04:17:34;;;;;;;4.15;1.88;;;9.00;99.90;;;;;;5135928;27;20122;-70
2022/05/12 04:20:06;;;;;;;5.30;1.88;;;8.90;99.90;;;;;;5141232;27;20061;-70
2022/05/12 04:22:33;;;;;;;2.72;1.13;;;9.10;99.90;;;;;;5149302;27;20117;-70
2022/05/12 04:24:59;;;;;;;3.13;1.40;;;9.10;99.90;;;;;;5135169;27;20053;-70
2022/05/12 04:27:25;;;;;;;4.13;1.90;;;9.10;99.90;;;;;;5145923;27;20376;-70
2022/05/12 04:29:51;;;;;;;7.30;2.08;;;9.00;99.90;;;;;;5146326;27;20086;-70
2022/05/12 04:32:17;;;;;;;5.30;2.00;;;9.20;99.90;;;;;;5137895;27;20652;-70
2022/05/12 04:37:31;;;;;;;3.90;1.50;;;9.20;99.90;;;;;;5143077;27;20189;-70
2022/05/12 04:40:16;;;;;;;4.90;1.95;;;9.30;99.90;;;;;;5137783;27;20038;-70
2022/05/12 04:42:43;;;;;;;3.45;1.80;;;9.30;99.90;;;;;;5132931;27;20095;-70
2022/05/12 04:45:11;;;;;;;3.35;1.50;;;9.30;99.90;;;;;;5140175;27;20363;-70
2022/05/12 04:47:38;;;;;;;4.60;1.85;;;9.30;99.90;;;;;;5149497;27;20126;-70
2022/05/12 04:50:05;;;;;;;6.97;2.60;;;9.30;99.90;;;;;;5149028;27;20087;-70
2022/05/12 04:52:31;;;;;;;7.07;2.40;;;9.40;99.90;;;;;;5145229;27;20083;-73
2022/05/12 04:54:57;;;;;;;5.78;2.47;;;9.40;99.90;;;;;;5131540;27;20043;-73
2022/05/12 04:57:23;;;;;;;4.57;2.30;;;9.50;99.90;;;;;;5144499;27;20073;-73
2022/05/12 04:59:51;;;;;;;4.75;2.10;;;9.50;99.90;;;;;;5153238;27;20060;-74
2022/05/12 05:02:17;;;;;;;5.53;2.40;;;9.50;99.90;;;;;;5148072;27;20119;-74
2022/05/12 05:04:43;;;;;;;;;;;9.70;99.90;;;;;;5115418;27;20129;-73
2022/05/12 05:07:10;;;;;;;4.80;2.15;;;9.70;99.90;;;;;;5131702;27;20461;-73
2022/05/12 05:09:37;;;;;;;5.80;1.88;;;9.70;99.90;;;;;;5145206;27;20077;-74
2022/05/12 05:12:03;;;;;;;7.05;2.50;;;9.80;99.90;;;;;;5135842;27;20043;-70
2022/05/12 05:14:29;;;;;;;;;;;9.80;99.90;;;;;;5138122;27;20046;-71
2022/05/12 05:16:55;;;;;;;5.45;2.80;;;9.90;99.90;;;;;;5141888;27;20405;-70
2022/05/12 05:19:20;;;;;;;5.60;2.35;;;10.00;99.90;;;;;;5135802;27;20027;-70
2022/05/12 05:21:46;;;;;;;3.05;1.98;;;10.10;99.90;;;;;;5135816;27;20062;-71
2022/05/12 05:24:12;;;;;;;4.15;2.40;;;10.10;99.90;;;;;;5138012;27;20481;-71
2022/05/12 05:26:37;;;;;;;7.13;2.55;;;10.10;99.90;;;;;;5132013;27;20035;-71
2022/05/12 05:29:03;;;;;;;4.70;2.13;;;10.30;99.90;;;;;;5132850;27;20043;-70
2022/05/12 05:31:29;;;;;;;6.10;2.63;;;10.40;99.90;;;;;;5135413;27;20084;-73
2022/05/12 05:33:55;;;;;;;5.93;2.60;;;10.50;99.90;;;;;;5135993;27;20125;-74
2022/05/12 05:36:21;;;;;;;3.70;2.25;;;10.60;99.90;;;;;;5138408;27;20058;-73
2022/05/12 05:38:47;;;;;;;6.88;2.90;;;10.60;99.90;;;;;;5134095;27;20031;-73
2022/05/12 05:41:13;;;;;;;7.50;2.70;;;10.80;99.90;;;;;;5134451;27;20398;-73
2022/05/12 05:43:39;;;;;;;4.88;2.40;;;10.80;99.90;;;;;;5145718;27;20038;-74
2022/05/12 05:46:05;;;;;;;5.57;2.10;;;10.80;99.90;;;;;;5146495;27;20050;-74
2022/05/12 05:48:31;;;;;;;;;;;10.90;99.90;;;;;;5150893;27;20049;-74
2022/05/12 05:53:42;;;;;;;6.10;2.50;;;11.10;99.90;;;;;;5147628;27;20485;-73
2022/05/12 05:56:14;;;;;;;5.90;1.77;;;11.30;99.90;;;;;;5148582;27;20043;-74
2022/05/12 05:58:41;;;;;;;8.82;3.08;;;11.30;99.90;;;;;;5137443;27;20023;-75
2022/05/12 06:01:07;;;;;;;4.65;2.20;;;11.40;99.90;;;;;;5136325;27;20416;-74
2022/05/12 06:03:33;;;;;;;6.10;2.75;;;11.60;99.90;;;;;;5129697;27;20039;-74
2022/05/12 06:05:59;;;;;;;4.80;1.92;;;11.80;99.90;;;;;;5128802;28;20077;-75
2022/05/12 06:08:24;;;;;;;3.88;2.03;;;12.40;99.90;;;;;;5129019;28;20047;-74
2022/05/12 06:10:50;;;;;;;5.18;1.80;;;12.90;99.90;;;;;;5129711;28;20047;-74
2022/05/12 06:13:17;;;;;;;5.60;2.08;;;13.30;99.90;;;;;;5129104;28;20043;-73
2022/05/12 06:15:43;;;;;;;5.95;2.00;;;13.60;99.90;;;;;;5130025;27;20047;-74
2022/05/12 06:18:18;;;;;;;6.78;2.30;;;13.70;99.90;;;;;;5115049;27;20466;-74
2022/05/12 06:20:45;;;;;;;5.93;2.10;;;13.50;99.90;;;;;;5135283;27;20096;-74
2022/05/12 06:23:12;;;;;;;6.55;1.88;;;13.30;99.90;;;;;;5117174;27;20081;-74
2022/05/12 06:25:38;;;;;;;7.43;2.33;;;13.20;99.90;;;;;;5116921;27;20074;-74
2022/05/12 06:28:05;;;;;;;3.65;1.60;;;13.20;99.90;;;;;;5134890;27;20103;-73
2022/05/12 06:30:30;;;;;;;3.08;1.60;;;13.20;99.90;;;;;;5134059;27;20043;-74
2022/05/12 06:32:57;;;;;;;4.28;1.50;;;13.20;99.90;;;;;;5134080;27;20520;-74
2022/05/12 06:35:25;;;;;;;5.20;1.73;;;13.20;99.90;;;;;;5133784;27;20047;-74
2022/05/12 06:37:52;;;;;;;4.78;1.73;;;13.30;99.90;;;;;;5116395;27;20043;-74
2022/05/12 06:40:18;;;;;;;5.53;1.60;;;13.30;99.90;;;;;;5145572;27;20045;-74
2022/05/12 06:42:44;;;;;;;4.95;1.67;;;13.40;99.90;;;;;;5154658;27;20126;-74
2022/05/12 06:45:13;;;;;;;3.03;1.20;;;13.50;99.90;;;;;;5154410;27;20091;-74
2022/05/12 06:47:45;;;;;;;3.80;1.45;;;13.60;99.90;;;;;;5154499;27;20424;-74
2022/05/12 06:50:11;;;;;;;8.45;1.95;;;13.70;99.90;;;;;;5154153;27;20051;-74
2022/05/12 06:52:37;;;;;;;7.25;1.80;;;13.70;99.90;;;;;;5136911;27;20125;-74
2022/05/12 06:55:03;;;;;;;6.05;1.58;;;13.80;99.90;;;;;;5153936;27;20592;-74
2022/05/12 06:57:30;;;;;;;;;;;13.90;99.90;;;;;;5154160;27;20133;-74
2022/05/12 06:59:56;;;;;;;4.10;1.38;;;14.00;99.90;;;;;;5154094;27;19926;-74
2022/05/12 07:02:22;;;;;;;;;;;14.10;99.90;;;;;;5154480;27;20043;-73
2022/05/12 07:04:52;;;;;;;5.25;1.50;;;14.20;99.90;;;;;;5154203;27;20285;-74
2022/05/12 07:07:19;;;;;;;5.97;1.58;;;14.20;99.90;;;;;;5154046;27;20476;-74
2022/05/12 07:09:44;;;;;;;4.97;1.40;;;14.30;99.90;;;;;;5153974;27;20050;-74
2022/05/12 07:12:12;;;;;;;5.68;1.30;;;14.50;99.90;;;;;;5154100;27;20157;-73
2022/05/12 07:14:37;;;;;;;6.65;1.60;;;14.70;99.90;;;;;;5157314;27;20065;-74
2022/05/12 07:17:03;;;;;;;4.32;1.30;;;14.80;99.90;;;;;;5156424;27;20473;-74
2022/05/12 07:19:31;;;;;;;5.15;1.50;;;14.90;99.90;;;;;;5154981;27;20046;-74
2022/05/12 07:27:25;;;;;;;6.47;1.73;;;15.10;99.90;;;;;;5154111;27;20141;-73
2022/05/12 07:29:51;;;;;;;7.60;1.40;;;15.00;99.90;;;;;;5154041;27;20125;-74
2022/05/12 07:32:17;;;;;;;6.20;1.52;;;15.00;99.90;;;;;;5154295;27;20046;-74
2022/05/12 07:34:43;;;;;;;4.55;1.40;;;15.10;99.90;;;;;;5154256;27;20056;-74
2022/05/12 07:37:08;;;;;;;4.78;1.38;;;15.40;99.90;;;;;;5154468;27;20043;-74
2022/05/12 07:39:35;;;;;;;5.90;1.48;;;15.80;99.90;;;;;;5155853;27;20311;-74
2022/05/12 07:42:02;;;;;;;8.05;1.55;;;15.90;99.90;;;;;;5154069;27;20070;-74
2022/05/12 07:44:34;;;;;;;6.53;1.50;;;15.80;99.90;;;;;;5154129;27;20489;-74
2022/05/12 07:47:09;;;;;;;7.90;1.42;;;15.60;99.90;;;;;;5138170;27;20379;-73
2022/05/12 07:49:36;;;;;;;5.43;1.30;;;15.80;99.90;;;;;;5155031;27;20425;-74
2022/05/12 07:52:08;;;;;;;4.55;1.02;;;15.80;99.90;;;;;;5154046;27;20051;-74
2022/05/12 07:54:35;;;;;;;5.60;1.35;;;16.00;99.90;;;;;;5155776;27;20055;-74
2022/05/12 07:57:01;;;;;;;4.68;1.00;;;16.20;99.90;;;;;;5154891;27;20054;-74
2022/05/12 07:59:29;;;;;;;6.50;1.45;;;16.30;99.90;;;;;;5154631;27;20043;-74
2022/05/12 08:01:56;;;;;;;2.88;0.90;;;16.40;99.90;;;;;;5154110;27;20375;-74
2022/05/12 08:04:22;;;;;;;6.28;1.50;;;16.70;99.90;;;;;;5154204;27;20031;-74
2022/05/12 08:06:47;;;;;;;3.80;1.17;;;16.80;99.90;;;;;;5155188;27;20034;-73
2022/05/12 08:09:14;;;;;;;3.97;1.00;;;17.20;99.90;;;;;;5155409;27;20492;-74
2022/05/12 08:11:40;;;;;;;4.47;1.20;;;17.10;99.90;;;;;;5153750;27;20038;-74
2022/05/12 08:14:06;;;;;;;;;;;17.20;99.90;;;;;;5157000;27;20504;-74
2022/05/12 08:16:32;;;;;;;5.30;1.17;;;17.00;99.90;;;;;;5155286;27;19982;-74
2022/05/12 08:18:58;;;;;;;;;;;16.90;99.90;;;;;;5121553;27;20041;-74
2022/05/12 08:21:24;;;;;;;4.03;1.00;;;16.70;99.90;;;;;;5153626;27;19918;-73
2022/05/12 08:23:51;;;;;;;6.63;1.50;;;16.70;99.90;;;;;;5152715;27;20490;-74
2022/05/12 08:26:17;;;;;;;5.18;1.35;;;16.60;99.90;;;;;;5154423;27;20045;-74
2022/05/12 08:28:44;;;;;;;3.15;1.23;;;16.50;99.90;;;;;;5153252;27;20043;-74
2022/05/12 08:31:10;;;;;;;3.60;1.02;;;16.90;99.90;;;;;;5153252;27;20055;-74
2022/05/12 08:33:36;;;;;;;4.25;1.17;;;16.70;99.90;;;;;;5153072;27;20133;-74
2022/05/12 08:36:02;;;;;;;3.10;1.05;;;16.60;99.90;;;;;;5152948;27;20405;-73
2022/05/12 08:38:28;;;;;;;;;;;16.60;99.90;;;;;;5153354;27;20481;-74
2022/05/12 08:41:16;;;;;;;4.80;1.25;;;16.50;99.90;;;;;;5152441;27;19963;-74
2022/05/12 08:43:45;;;;;;;3.83;1.20;;;16.60;99.90;;;;;;5152809;27;20034;-73
2022/05/12 08:46:20;;;;;;;5.47;1.38;;;17.10;99.90;;;;;;5152516;27;20078;-73
2022/05/12 08:48:48;;;;;;;8.00;1.50;;;16.80;99.90;;;;;;5153192;27;20078;-74
2022/05/12 08:51:19;;;;;;;6.35;1.20;;;16.40;99.90;;;;;;5136188;27;20042;-75
2022/05/12 08:53:58;;;;;;;6.63;1.40;;;16.30;99.90;;;;;;5154178;27;20161;-74
2022/05/12 08:56:25;;;;;;;4.05;1.02;;;16.40;99.90;;;;;;5153515;27;20103;-75
2022/05/12 08:58:55;;;;;;;4.03;1.10;;;16.70;99.90;;;;;;5152748;27;20042;-75
2022/05/12 09:01:28;;;;;;;5.68;1.33;;;17.20;99.90;;;;;;5153228;27;20081;-75
2022/05/12 09:04:03;;;;;;;3.13;1.00;;;17.30;98.30;;;;;;5153758;27;20142;-75
2022/05/12 09:06:36;;;;;;;2.97;1.13;;;17.30;99.10;;;;;;5152311;27;20078;-75
2022/05/12 09:09:23;;;;;;;4.00;0.98;;;16.90;99.90;;;;;;5154793;27;20043;-74
2022/05/12 09:12:10;;;;;;;3.97;1.30;;;16.80;99.90;;;;;;5152018;27;20061;-74
2022/05/12 09:14:48;;;;;;;4.90;1.25;;;16.70;99.90;;;;;;5152340;27;20061;-74
2022/05/12 09:17:21;;;;;;;6.10;1.27;;;16.80;99.90;;;;;;5152304;27;20039;-74
2022/05/12 09:19:47;;;;;;;5.45;1.02;;;17.00;99.50;;;;;;5152099;27;20050;-74
2022/05/12 09:22:13;;;;;;;5.72;1.13;;;17.50;99.90;;;;;;5153625;27;20038;-75
2022/05/12 09:24:41;;;;;;;3.35;1.10;;;17.50;97.40;;;;;;5135079;27;20039;-75
2022/05/12 09:27:11;;;;;;;3.60;1.00;;;17.60;96.90;;;;;;5152237;27;20043;-74
2022/05/12 09:29:47;;;;;;;4.57;1.13;;;17.90;97.90;;;;;;5151926;27;20034;-75
2022/05/12 09:32:13;;;;;;;3.55;0.95;;;18.10;96.70;;;;;;5151884;27;20046;-75
2022/05/12 09:34:43;;;;;;;3.42;1.00;;;18.30;96.00;;;;;;5151461;27;20047;-74
2022/05/12 09:37:17;;;;;;;3.72;0.95;;;18.40;95.80;;;;;;5151652;27;20065;-75
2022/05/12 09:39:54;;;;;;;3.05;1.08;;;18.10;95.40;;;;;;5151573;27;20042;-75
2022/05/12 09:42:29;;;;;;;5.25;1.10;;;18.10;94.80;;;;;;5152704;27;20038;-75
2022/05/12 09:45:05;;;;;;;3.67;0.88;;;17.50;94.30;;;;;;5153535;27;20627;-75
2022/05/12 09:47:32;;;;;;;3.50;1.00;;;17.30;95.00;;;;;;5153331;27;20054;-75
2022/05/12 09:50:26;;;;;;;2.88;0.80;;;16.90;95.10;;;;;;5152117;27;20190;-74
2022/05/12 09:52:55;;;;;;;4.82;1.20;;;16.50;95.40;;;;;;5152752;27;20059;-75
2022/05/12 09:55:30;;;;;;;3.65;1.00;;;16.50;96.10;;;;;;5163030;27;20058;-73
2022/05/12 09:57:59;;;;;;;2.70;0.80;;;16.60;97.00;;;;;;5157154;27;20462;-74
2022/05/12 10:00:44;;;;;;;2.80;1.00;;;17.20;97.50;;;;;;5157710;27;20049;-74
2022/05/12 10:09:05;;;;;;;5.47;1.40;;;17.50;95.50;;;;;;5154938;27;20396;-74
2022/05/12 10:11:49;;;;;;;3.85;1.20;;;17.50;95.70;;;;;;5155687;27;20096;-75
2022/05/12 10:14:23;;;;;;;4.88;1.52;;;17.00;95.80;;;;;;5155587;27;20422;-74
2022/05/12 10:16:52;;;;;;;4.88;1.10;;;16.90;95.30;;;;;;5154822;27;20117;-75
2022/05/12 10:19:22;;;;;;;2.25;0.90;;;17.20;94.70;;;;;;5154783;27;20050;-75
2022/05/12 10:22:13;;;;;;;3.47;0.90;;;17.40;95.00;;;;;;5137353;27;20041;-74
2022/05/12 10:25:06;;;;;;;2.75;0.80;;;17.60;94.50;;;;;;5144103;27;20088;-74
2022/05/12 10:27:58;;;;;;;4.93;1.10;;;17.50;95.30;;;;;;5155340;27;20038;-74
2022/05/12 10:30:43;;;;;;;3.88;0.95;;;18.10;94.30;;;;;;5154965;27;20087;-75
2022/05/12 10:33:36;;;;;;;4.70;1.00;;;18.40;92.30;;;;;;5154617;27;20402;-75
2022/05/12 10:36:28;;;;;;;4.82;1.05;;;18.70;92.70;;;;;;5154533;27;20057;-75
2022/05/12 10:39:38;;;;;;;4.10;0.90;;;18.80;91.90;;;;;;5154296;27;20042;-75
2022/05/12 10:42:17;;;;;;;5.20;1.13;;;18.70;91.10;;;;;;5153140;27;20054;-74
2022/05/12 10:44:55;;;;;;;4.90;1.10;;;18.90;92.00;;;;;;5154242;27;20087;-74
2022/05/12 10:47:42;;;;;;;2.58;0.90;;;18.50;92.10;;;;;;5154481;27;20592;-74
2022/05/12 10:50:22;;;;;;;4.18;0.90;;;18.90;92.80;;;;;;5154560;27;20087;-75
2022/05/12 10:53:22;;;;;;;6.20;1.17;;;18.90;92.40;;;;;;5136485;27;20138;-75
2022/05/12 10:56:26;;;;;;;3.25;1.00;;;18.70;92.00;;;;;;5152968;27;20103;-74
2022/05/12 10:59:25;;;;;;;4.25;0.90;;;18.60;92.30;;;;;;5136653;27;20489;-74
2022/05/12 11:01:57;;;;;;;2.85;0.80;;;18.90;91.70;;;;;;5153821;27;20026;-74
2022/05/12 11:04:28;;;;;;;3.38;0.90;;;18.50;90.60;;;;;;5152789;27;20402;-74
2022/05/12 11:07:13;;;;;;;4.40;0.80;;;18.50;90.30;;;;;;5153561;27;20047;-75
2022/05/12 11:09:47;;;;;;;3.60;0.90;;;18.30;91.30;;;;;;5153760;27;20157;-74
2022/05/12 11:12:29;;;;;;;4.65;1.35;;;18.20;91.10;;;;;;5153358;27;20077;-74
2022/05/12 11:15:04;;;;;;;2.50;0.60;;;18.10;91.50;;;;;;5153072;27;20127;-75
2022/05/12 11:17:38;;;;;;;2.42;0.80;;;18.60;91.10;;;;;;5154181;27;20047;-75
2022/05/12 11:20:31;;;;;;;5.53;1.08;;;18.90;90.50;;;;;;5154984;27;20508;-75
2022/05/12 11:23:12;;;;;;;2.80;1.00;;;19.10;90.50;;;;;;5155507;27;20554;-74
2022/05/12 11:25:58;;;;;;;2.88;0.80;;;18.80;90.60;;;;;;5167901;27;20365;-75
2022/05/12 11:31:43;;;;;;;2.83;0.73;;;18.30;91.40;;;;;;5167544;27;20102;-74
2022/05/12 11:34:11;;;;;;;;;;;18.10;92.20;;;;;;5167765;27;20086;-73
2022/05/12 11:37:03;;;;;;;;;;;18.60;91.60;;;;;;5168017;27;19930;-75
2022/05/12 11:39:31;;;;;;;3.17;0.70;;;19.10;90.40;;;;;;5117694;27;20456;-74
2022/05/12 11:42:06;;;;;;;3.78;0.80;;;19.40;90.50;;;;;;5152672;27;20046;-75
2022/05/12 11:44:39;;;;;;;4.25;0.77;;;19.20;90.10;;;;;;5152797;27;20038;-75
2022/05/12 11:47:11;;;;;;;5.60;1.10;;;19.70;90.70;;;;;;5153790;27;20118;-75
2022/05/12 11:49:57;;;;;;;2.58;0.70;;;19.10;90.40;;;;;;5152585;27;20046;-75
2022/05/12 11:55:35;;;;;;;2.53;0.77;;;18.00;90.60;;;;;;5129526;27;20395;-74
2022/05/12 11:58:08;;;;;;;2.47;0.90;;;17.90;92.00;;;;;;5128307;27;20047;-74
2022/05/12 12:00:34;;;;;;;2.42;0.70;;;17.60;92.00;;;;;;5129105;28;20128;-74
2022/05/12 12:03:15;;;;;;;;;;;17.40;92.10;;;;;;5112769;28;20075;-74
2022/05/12 12:05:40;;;;;;;2.97;1.00;;;17.10;92.60;;;;;;5130308;28;19915;-74
2022/05/12 12:08:06;;;;;;;;;;;17.40;93.60;;;;;;5132605;27;20446;-75
2022/05/12 12:10:36;;;;;;;3.03;1.02;;;17.90;93.50;;;;;;5110664;28;19963;-75
2022/05/12 12:13:26;;;;;;;3.22;1.00;;;18.30;92.60;;;;;;5127921;27;20484;-75
2022/05/12 12:15:57;;;;;;;4.53;1.35;;;18.10;91.90;;;;;;5127640;28;20046;-75
2022/05/12 12:18:25;;;;;;;2.15;0.88;;;18.30;92.70;;;;;;5112187;28;20045;-75
2022/05/12 12:20:57;;;;;;;2.60;0.90;;;18.70;92.70;;;;;;5127874;28;20488;-75
2022/05/12 12:23:33;;;;;;;4.18;1.00;;;18.60;91.40;;;;;;5110476;28;20133;-75
2022/05/12 12:26:03;;;;;;;2.88;0.90;;;18.30;91.70;;;;;;5127952;27;20131;-75
2022/05/12 12:28:50;;;;;;;2.35;0.70;;;17.90;91.40;;;;;;5127433;28;20405;-75
2022/05/12 12:31:37;;;;;;;2.10;0.75;;;17.90;91.60;;;;;;5129200;28;20039;-74
2022/05/12 12:34:21;;;;;;;2.65;0.90;;;18.70;91.20;;;;;;5112631;27;20049;-76
2022/05/12 12:36:53;;;;;;;2.75;0.90;;;18.30;90.30;;;;;;5129127;28;20496;-75
2022/05/12 12:39:51;;;;;;;2.50;0.80;;;19.20;90.60;;;;;;5129486;27;20040;-76
2022/05/12 12:42:46;;;;;;;3.38;1.02;;;19.10;85.80;;;;;;5111810;28;20055;-76
2022/05/12 12:45:19;;;;;;;2.90;0.75;;;18.60;85.00;;;;;;5122045;28;20055;-76
2022/05/12 12:47:57;;;;;;;1.85;0.63;;;18.40;87.00;;;;;;5132758;27;20082;-75
2022/05/12 12:50:58;;;;;;;4.30;1.05;;;18.30;89.80;;;;;;5132453;28;20130;-76
2022/05/12 12:56:30;;;;;;;1.63;0.70;;;18.20;89.80;;;;;;5127557;27;20130;-76
2022/05/12 12:56:37;;;;;;;3.08;1.15;;;18.20;90.00;;;;;;5127492;28;20043;-76
2022/05/12 12:59:22;;;;;;;4.25;1.10;;;18.70;89.80;;;;;;5127836;28;20039;-76
2022/05/12 13:01:50;;;;;;;2.28;0.90;;;19.10;90.00;;;;;;5129067;27;20052;-75
2022/05/12 13:04:25;;;;;;;3.95;1.00;;;19.30;87.90;;;;;;5111341;28;20049;-75
2022/05/12 13:06:57;;;;;;;3.15;0.98;;;18.70;88.00;;;;;;5112898;28;20074;-76
2022/05/12 13:09:29;;;;;;;3.72;1.08;;;18.70;87.60;;;;;;5097073;28;20452;-76
2022/05/12 13:12:21;;;;;;;2.78;0.68;;;18.30;87.00;;;;;;5112862;28;20039;-76
2022/05/12 13:14:51;;;;;;;4.32;0.90;;;18.90;86.80;;;;;;5113927;28;20526;-76
2022/05/12 13:17:25;;;;;;;4.60;0.90;;;18.60;86.70;;;;;;5114935;28;20039;-78
2022/05/12 13:19:52;;;;;;;1.95;0.80;;;19.00;85.70;;;;;;5116056;28;20123;-77
2022/05/12 13:22:52;;;;;;;3.33;0.88;;;19.00;85.00;;;;;;5113325;28;20093;-76
2022/05/12 13:25:30;;;;;;;1.58;0.70;;;19.20;84.70;;;;;;5113032;28;20043;-77
2022/05/12 13:27:57;;;;;;;2.55;0.93;;;19.10;84.80;;;;;;5113324;28;20126;-76
2022/05/12 13:30:41;;;;;;;2.25;0.88;;;18.70;85.00;;;;;;5113354;28;20055;-76
2022/05/12 13:33:27;;;;;;;3.20;1.10;;;18.40;86.30;;;;;;5112650;28;20479;-76
2022/05/12 13:36:00;;;;;;;2.95;0.90;;;19.00;86.10;;;;;;5094829;28;20044;-76
2022/05/12 13:38:29;;;;;;;2.72;1.00;;;19.40;84.70;;;;;;5095340;28;20047;-75